Time;durP1;ratioP1;P1;durP2;ratioP2;P2;SDS_P1;SDS_P2;PMS_P1;PMS_P2;Temp;Humidity;BMP_temperature;BMP_pressure;BME280_temperature;BME280_humidity;BME280_pressure;Samples;Min_cycle;Max_cycle;Signal;HPM_P1;HPM_P2
2023/09/22 00:01:54;;;;;;;14.60;6.65;;;;;;;13.25;100.00;99777.56;4878381;29;20039;-71
2023/09/22 00:04:20;;;;;;;18.25;7.70;;;;;;;13.18;100.00;99776.09;4861979;29;20037;-72
2023/09/22 00:06:45;;;;;;;16.45;6.75;;;;;;;13.12;100.00;99777.88;4865000;29;20401;-71
2023/09/22 00:09:11;;;;;;;15.07;6.45;;;;;;;13.12;100.00;99785.91;4896917;29;20037;-72
2023/09/22 00:11:37;;;;;;;14.43;6.40;;;;;;;13.05;100.00;99780.69;4896770;29;20400;-72
2023/09/22 00:14:03;;;;;;;13.98;6.38;;;;;;;13.00;100.00;99787.81;4896877;29;20489;-71
2023/09/22 00:16:29;;;;;;;15.63;6.50;;;;;;;12.92;100.00;99786.34;4896649;29;20096;-71
2023/09/22 00:18:54;;;;;;;15.45;6.53;;;;;;;12.91;100.00;99787.38;4896837;29;20084;-72
2023/09/22 00:21:20;;;;;;;14.88;6.40;;;;;;;12.78;100.00;99769.72;4896598;29;20037;-72
2023/09/22 00:23:46;;;;;;;14.00;6.57;;;;;;;12.80;100.00;99789.03;4896646;29;20043;-72
2023/09/22 00:26:11;;;;;;;15.30;6.13;;;;;;;12.76;100.00;99784.38;4896407;29;20464;-72
2023/09/22 00:28:36;;;;;;;13.90;5.78;;;;;;;12.76;100.00;99790.59;4896502;29;20067;-72
2023/09/22 00:31:02;;;;;;;15.90;5.72;;;;;;;12.70;100.00;99786.16;4896532;29;20036;-72
2023/09/22 00:33:28;;;;;;;13.00;5.70;;;;;;;12.70;100.00;99784.28;4895334;29;20088;-72
2023/09/22 00:35:53;;;;;;;11.77;5.55;;;;;;;12.67;100.00;99771.38;4896488;29;20028;-72
2023/09/22 00:38:18;;;;;;;16.63;4.53;;;;;;;12.58;100.00;99772.81;4896522;29;20028;-72
2023/09/22 00:40:44;;;;;;;12.82;5.28;;;;;;;12.53;100.00;99777.25;4896357;29;20119;-71
2023/09/22 00:43:11;;;;;;;11.50;5.05;;;;;;;12.57;100.00;99794.44;4896085;29;20096;-71
2023/09/22 00:45:47;;;;;;;13.65;5.45;;;;;;;12.53;100.00;99788.75;4894819;29;20033;-71
2023/09/22 00:48:21;;;;;;;11.80;5.18;;;;;;;12.55;100.00;99796.53;4896141;29;20552;-72
2023/09/22 00:50:47;;;;;;;10.95;4.45;;;;;;;12.51;100.00;99798.88;4896121;29;20035;-72
2023/09/22 00:53:13;;;;;;;13.18;5.45;;;;;;;12.44;100.00;99792.84;4896216;29;20067;-71
2023/09/22 00:55:39;;;;;;;12.25;5.38;;;;;;;12.41;100.00;99790.63;4896067;29;20445;-72
2023/09/22 00:58:04;;;;;;;11.48;5.47;;;;;;;12.42;100.00;99797.63;4879180;29;20468;-71
2023/09/22 01:00:31;;;;;;;12.13;4.93;;;;;;;12.33;100.00;99788.31;4895915;29;20037;-72
2023/09/22 01:02:58;;;;;;;12.30;5.65;;;;;;;12.35;100.00;99791.59;4895923;29;20032;-72
2023/09/22 01:05:24;;;;;;;12.32;5.28;;;;;;;12.33;100.00;99775.75;4895880;29;20500;-71
2023/09/22 01:07:50;;;;;;;14.02;5.85;;;;;;;12.30;100.00;99778.09;4895752;29;20105;-71
2023/09/22 01:10:15;;;;;;;10.85;4.25;;;;;;;12.32;100.00;99786.72;4895960;29;20032;-72
2023/09/22 01:12:40;;;;;;;9.82;4.07;;;;;;;12.27;100.00;99774.84;4895588;29;20037;-72
2023/09/22 01:15:08;;;;;;;13.82;4.93;;;;;;;12.28;100.00;99792.50;4894532;29;20143;-72
2023/09/22 01:17:33;;;;;;;14.23;6.28;;;;;;;12.28;100.00;99792.50;4894444;29;20441;-72
2023/09/22 01:19:59;;;;;;;14.50;5.30;;;;;;;12.30;100.00;99802.16;4895840;29;20041;-72
2023/09/22 01:22:24;;;;;;;14.88;5.15;;;;;;;12.28;100.00;99791.69;4894178;29;20072;-72
2023/09/22 01:24:49;;;;;;;12.13;5.78;;;;;;;12.22;100.00;99788.09;4895618;29;20060;-71
2023/09/22 01:27:15;;;;;;;14.20;6.53;;;;;;;12.24;100.00;99798.56;4895487;29;20144;-71
2023/09/22 01:29:40;;;;;;;15.48;5.57;;;;;;;12.19;100.00;99793.09;4895701;29;20495;-72
2023/09/22 01:32:09;;;;;;;14.10;5.75;;;;;;;12.20;100.00;99800.88;4895423;29;20092;-72
2023/09/22 01:34:35;;;;;;;15.27;6.22;;;;;;;12.19;100.00;99798.47;4895359;29;20111;-72
2023/09/22 01:37:07;;;;;;;14.13;5.78;;;;;;;12.16;100.00;99789.03;4895439;29;21042;-72
2023/09/22 01:39:32;;;;;;;15.32;4.85;;;;;;;12.16;100.00;99797.06;4895377;29;20055;-72
2023/09/22 01:41:58;;;;;;;12.45;4.95;;;;;;;12.07;100.00;99787.75;4878485;29;20489;-72
2023/09/22 01:44:23;;;;;;;13.23;5.80;;;;;;;12.07;100.00;99785.88;4877884;29;20043;-72
2023/09/22 01:46:49;;;;;;;15.20;4.72;;;;;;;12.01;100.00;99781.47;4895147;29;20033;-71
2023/09/22 01:49:14;;;;;;;15.63;5.70;;;;;;;11.99;100.00;99788.09;4895075;29;20119;-72
2023/09/22 01:51:39;;;;;;;13.85;6.00;;;;;;;11.95;100.00;99782.41;4895133;29;20028;-72
2023/09/22 01:54:05;;;;;;;16.00;5.97;;;;;;;11.93;100.00;99779.16;4894953;29;20040;-72
2023/09/22 01:56:30;;;;;;;24.58;7.10;;;;;;;11.94;100.00;99790.66;4894965;29;20060;-72
2023/09/22 01:58:56;;;;;;;16.83;6.20;;;;;;;11.91;100.00;99785.78;4895012;29;20396;-72
2023/09/22 02:01:22;;;;;;;15.32;5.70;;;;;;;11.91;100.00;99793.78;4893515;29;20064;-72
2023/09/22 02:03:47;;;;;;;13.93;5.32;;;;;;;11.93;100.00;99800.53;4894934;29;20028;-72
2023/09/22 02:06:12;;;;;;;14.60;5.82;;;;;;;11.92;100.00;99798.09;4894691;29;20511;-72
2023/09/22 02:08:38;;;;;;;15.23;4.82;;;;;;;11.93;100.00;99800.53;4894674;29;20187;-72
2023/09/22 02:11:03;;;;;;;15.27;6.13;;;;;;;11.90;100.00;99795.66;4894721;29;20042;-72
2023/09/22 02:13:29;;;;;;;15.30;6.03;;;;;;;11.91;100.00;99791.94;4894815;29;20065;-72
2023/09/22 02:15:54;;;;;;;19.00;6.78;;;;;;;11.90;100.00;99792.19;4893369;29;20592;-72
2023/09/22 02:18:20;;;;;;;17.88;6.78;;;;;;;11.83;100.00;99776.22;4894639;29;20061;-72
2023/09/22 02:20:45;;;;;;;15.50;5.65;;;;;;;11.75;100.00;99764.00;4877840;29;20044;-72
2023/09/22 02:23:11;;;;;;;14.90;5.97;;;;;;;11.85;100.00;99780.28;4893186;29;20066;-72
2023/09/22 02:25:36;;;;;;;16.48;6.43;;;;;;;11.83;100.00;99773.53;4894347;29;20032;-72
2023/09/22 02:28:01;;;;;;;14.60;5.68;;;;;;;11.84;100.00;99781.34;4894338;29;20618;-72
2023/09/22 02:30:27;;;;;;;17.63;6.40;;;;;;;11.89;100.00;99794.00;4894445;29;20469;-72
2023/09/22 02:32:54;;;;;;;17.13;6.88;;;;;;;11.85;100.00;99796.31;4894315;29;20028;-72
2023/09/22 02:35:22;;;;;;;15.35;5.35;;;;;;;11.82;100.00;99796.78;4894493;29;20080;-72
2023/09/22 02:37:47;;;;;;;14.90;6.07;;;;;;;11.83;100.00;99800.25;4894249;29;20035;-71
2023/09/22 02:40:14;;;;;;;18.55;7.50;;;;;;;11.84;100.00;99794.69;4894403;29;20036;-71
2023/09/22 02:42:40;;;;;;;14.25;5.65;;;;;;;11.88;100.00;99792.41;4893093;29;20060;-72
2023/09/22 02:45:06;;;;;;;16.95;6.25;;;;;;;11.90;100.00;99789.50;4894227;29;20072;-71
2023/09/22 02:47:31;;;;;;;14.20;5.72;;;;;;;11.94;100.00;99787.97;4894209;29;20032;-72
2023/09/22 02:49:57;;;;;;;16.25;5.63;;;;;;;11.94;100.00;99786.13;4894140;29;20040;-71
2023/09/22 02:52:23;;;;;;;18.85;6.95;;;;;;;11.97;100.00;99785.69;4894244;29;20041;-71
2023/09/22 02:54:53;;;;;;;14.35;6.15;;;;;;;12.00;100.00;99784.41;4894023;29;20036;-71
2023/09/22 02:57:19;;;;;;;15.20;6.68;;;;;;;12.00;100.00;99790.56;4893523;29;20548;-72
2023/09/22 02:59:44;;;;;;;14.10;6.32;;;;;;;12.05;100.00;99792.50;4894026;29;20119;-72
2023/09/22 03:02:09;;;;;;;13.88;4.97;;;;;;;12.02;100.00;99780.44;4892795;29;20064;-72
2023/09/22 03:04:35;;;;;;;14.90;5.72;;;;;;;12.04;100.00;99785.56;4892620;29;20084;-72
2023/09/22 03:07:01;;;;;;;16.92;6.38;;;;;;;12.06;100.00;99794.16;4893744;29;20519;-72
2023/09/22 03:09:26;;;;;;;13.95;6.57;;;;;;;12.07;100.00;99790.41;4892789;29;20044;-72
2023/09/22 03:11:52;;;;;;;14.68;6.68;;;;;;;12.07;100.00;99782.41;4893900;29;20506;-72
2023/09/22 03:14:17;;;;;;;14.40;5.32;;;;;;;12.12;100.00;99784.38;4892646;29;20048;-73
2023/09/22 03:16:42;;;;;;;18.33;6.07;;;;;;;12.11;100.00;99780.91;4893881;29;20029;-72
2023/09/22 03:19:09;;;;;;;15.27;7.78;;;;;;;12.16;100.00;99781.03;4877070;29;20119;-72
2023/09/22 03:21:35;;;;;;;16.65;5.75;;;;;;;12.17;100.00;99792.53;4893763;29;20032;-72
2023/09/22 03:24:00;;;;;;;16.13;5.43;;;;;;;12.17;100.00;99792.53;4893904;29;20084;-72
2023/09/22 03:26:26;;;;;;;14.15;4.75;;;;;;;12.15;100.00;99790.06;4894003;29;20044;-72
2023/09/22 03:28:51;;;;;;;13.93;4.93;;;;;;;12.16;100.00;99789.03;4893851;29;20127;-72
2023/09/22 03:31:17;;;;;;;15.13;6.13;;;;;;;12.15;100.00;99781.25;4877105;29;20131;-72
2023/09/22 03:33:45;;;;;;;14.40;5.60;;;;;;;12.18;100.00;99788.78;4877113;29;20032;-72
2023/09/22 03:36:12;;;;;;;13.57;5.47;;;;;;;12.19;100.00;99796.59;4877573;29;20037;-72
2023/09/22 03:38:41;;;;;;;17.25;6.88;;;;;;;12.15;100.00;99782.06;4893761;29;20036;-72
2023/09/22 03:41:07;;;;;;;13.50;5.10;;;;;;;12.19;100.00;99793.91;4893776;29;20060;-72
2023/09/22 03:43:33;;;;;;;12.70;5.20;;;;;;;12.18;100.00;99794.97;4893652;29;20119;-72
2023/09/22 03:45:59;;;;;;;11.77;4.60;;;;;;;12.19;100.00;99791.25;4894065;29;20496;-72
2023/09/22 03:48:24;;;;;;;14.27;7.22;;;;;;;12.21;100.00;99799.03;4893475;29;20029;-72
2023/09/22 03:50:50;;;;;;;13.80;6.50;;;;;;;12.20;100.00;99789.38;4893667;29;20041;-72
2023/09/22 03:53:15;;;;;;;14.38;5.93;;;;;;;12.19;100.00;99790.44;4893592;29;20473;-72
2023/09/22 03:55:41;;;;;;;13.30;5.45;;;;;;;12.21;100.00;99794.50;4893652;29;20366;-72
2023/09/22 03:58:07;;;;;;;11.25;4.25;;;;;;;12.19;100.00;99796.59;4893679;29;20036;-72
2023/09/22 04:00:32;;;;;;;12.75;4.63;;;;;;;12.22;100.00;99803.34;4893561;29;20043;-72
2023/09/22 04:02:59;;;;;;;13.23;5.75;;;;;;;12.21;100.00;99801.72;4893669;29;20045;-72
2023/09/22 04:05:26;;;;;;;13.93;5.20;;;;;;;12.19;100.00;99790.44;4893494;29;20028;-72
2023/09/22 04:07:54;;;;;;;9.77;4.35;;;;;;;12.21;100.00;99794.50;4894257;29;20084;-72
2023/09/22 04:10:22;;;;;;;15.80;5.60;;;;;;;12.25;100.00;99805.53;4880400;29;20068;-72
2023/09/22 04:12:47;;;;;;;12.85;4.65;;;;;;;12.26;100.00;99799.13;4896924;29;20063;-72
2023/09/22 04:15:13;;;;;;;12.43;4.82;;;;;;;12.27;100.00;99808.78;4895616;29;20560;-72
2023/09/22 04:17:38;;;;;;;11.50;5.22;;;;;;;12.24;100.00;99804.72;4896714;29;20036;-72
2023/09/22 04:20:07;;;;;;;13.23;4.40;;;;;;;12.22;100.00;99804.13;4896884;29;20131;-72
2023/09/22 04:22:37;;;;;;;13.55;5.32;;;;;;;12.24;100.00;99801.25;4896786;29;20047;-72
2023/09/22 04:25:08;;;;;;;8.80;3.55;;;;;;;12.26;100.00;99805.31;4896725;29;20043;-72
2023/09/22 04:27:36;;;;;;;8.40;3.78;;;;;;;12.26;100.00;99812.50;4896548;29;20640;-72
2023/09/22 04:30:07;;;;;;;14.43;5.82;;;;;;;12.26;100.00;99817.84;4896427;29;20044;-72
2023/09/22 04:32:33;;;;;;;8.07;3.55;;;;;;;12.26;100.00;99818.69;4896557;29;20053;-72
2023/09/22 04:35:02;;;;;;;16.58;4.10;;;;;;;12.25;100.00;99814.34;4896474;29;20481;-72
2023/09/22 04:37:28;;;;;;;9.57;4.88;;;;;;;12.22;100.00;99809.47;4896546;29;20476;-72
2023/09/22 04:39:54;;;;;;;25.15;3.97;;;;;;;12.22;100.00;99825.53;4896351;29;20120;-73
2023/09/22 04:42:20;;;;;;;7.38;3.40;;;;;;;12.22;100.00;99817.50;4896385;29;20064;-72
2023/09/22 04:44:45;;;;;;;10.32;4.88;;;;;;;12.20;100.00;99816.91;4896293;29;20119;-72
2023/09/22 04:47:11;;;;;;;8.68;3.95;;;;;;;12.21;100.00;99809.72;4896325;29;20033;-72
2023/09/22 04:49:36;;;;;;;8.07;3.35;;;;;;;12.20;100.00;99810.75;4896181;29;20222;-72
2023/09/22 04:52:02;;;;;;;10.85;3.88;;;;;;;12.17;100.00;99817.38;4896155;29;20544;-72
2023/09/22 04:54:29;;;;;;;9.15;2.80;;;;;;;12.15;100.00;99818.66;4896159;29;20032;-72
2023/09/22 04:56:54;;;;;;;9.27;3.47;;;;;;;12.17;100.00;99824.59;4895919;29;20033;-72
2023/09/22 04:59:20;;;;;;;7.55;3.33;;;;;;;12.15;100.00;99819.47;4896031;29;20052;-72
2023/09/22 05:01:45;;;;;;;5.13;3.03;;;;;;;12.15;100.00;99818.66;4896103;29;20484;-72
2023/09/22 05:04:10;;;;;;;8.00;2.85;;;;;;;12.13;100.00;99815.41;4896425;29;20540;-72
2023/09/22 05:06:36;;;;;;;6.50;3.35;;;;;;;12.10;100.00;99821.22;4895716;29;20517;-72
2023/09/22 05:09:03;;;;;;;6.18;2.90;;;;;;;12.10;100.00;99830.03;4879387;29;20484;-72
2023/09/22 05:11:28;;;;;;;7.15;3.15;;;;;;;12.09;100.00;99827.63;4894678;29;20055;-73
2023/09/22 05:13:54;;;;;;;7.30;3.75;;;;;;;12.04;100.00;99833.66;4896030;29;20045;-72
2023/09/22 05:16:20;;;;;;;5.07;2.63;;;;;;;12.05;100.00;99832.59;4894604;29;20051;-72
2023/09/22 05:18:45;;;;;;;8.05;2.60;;;;;;;12.04;100.00;99839.00;4894549;29;20044;-72
2023/09/22 05:21:11;;;;;;;6.10;3.20;;;;;;;12.06;100.00;99848.41;4895594;29;20028;-72
2023/09/22 05:23:36;;;;;;;6.90;3.42;;;;;;;12.03;100.00;99845.41;4895931;29;20039;-72
2023/09/22 05:26:08;;;;;;;7.72;2.83;;;;;;;12.03;100.00;99846.22;4895445;29;20032;-72
2023/09/22 05:28:35;;;;;;;6.78;3.10;;;;;;;12.02;100.00;99849.09;4895353;29;20045;-72
2023/09/22 05:31:04;;;;;;;5.25;3.00;;;;;;;12.03;100.00;99853.41;4893724;29;20034;-73
2023/09/22 05:33:31;;;;;;;5.05;3.25;;;;;;;12.00;100.00;99851.22;4893599;29;20032;-72
2023/09/22 05:35:56;;;;;;;9.10;3.90;;;;;;;11.98;100.00;99861.31;4894551;29;20036;-72
2023/09/22 05:38:22;;;;;;;7.35;3.60;;;;;;;12.01;100.00;99867.00;4894935;29;20034;-72
2023/09/22 05:40:47;;;;;;;3.92;2.85;;;;;;;11.99;100.00;99870.94;4894817;29;20385;-72
2023/09/22 05:43:14;;;;;;;4.85;3.15;;;;;;;11.96;100.00;99868.72;4893472;29;20036;-72
2023/09/22 05:45:40;;;;;;;6.50;3.22;;;;;;;11.96;100.00;99866.88;4878398;29;20044;-72
2023/09/22 05:48:07;;;;;;;4.30;2.63;;;;;;;11.95;100.00;99867.13;4895337;29;20044;-72
2023/09/22 05:50:36;;;;;;;7.18;3.10;;;;;;;11.91;100.00;99872.09;4895135;29;20044;-72
2023/09/22 05:53:05;;;;;;;7.30;3.63;;;;;;;11.95;100.00;99883.16;4893372;29;20032;-72
2023/09/22 05:55:30;;;;;;;6.20;2.85;;;;;;;11.94;100.00;99886.84;4893920;29;20036;-72
2023/09/22 05:57:56;;;;;;;4.70;2.70;;;;;;;11.96;100.00;99888.25;4853061;29;20368;-72
2023/09/22 06:00:26;;;;;;;7.28;3.30;;;;;;;11.96;100.00;99895.47;4895427;29;20051;-72
2023/09/22 06:02:52;;;;;;;5.43;2.40;;;;;;;11.96;100.00;99893.59;4894943;29;20036;-73
2023/09/22 06:05:24;;;;;;;4.03;2.90;;;;;;;11.98;100.00;99896.06;4894833;29;20032;-72
2023/09/22 06:07:51;;;;;;;3.72;2.63;;;;;;;11.99;100.00;99886.97;4894759;29;20101;-72
2023/09/22 06:10:17;;;;;;;8.25;2.88;;;;;;;12.04;100.00;99887.91;4878134;29;20028;-72
2023/09/22 06:12:42;;;;;;;5.45;2.38;;;;;;;12.06;100.00;99893.84;4894702;29;20039;-72
2023/09/22 06:15:09;;;;;;;4.28;2.92;;;;;;;12.06;100.00;99901.88;4894910;29;20050;-72
2023/09/22 06:17:35;;;;;;;3.60;2.63;;;;;;;12.09;100.00;99905.94;4894675;29;20043;-72
2023/09/22 06:20:08;;;;;;;9.32;2.78;;;;;;;12.11;100.00;99911.06;4894959;29;20391;-72
2023/09/22 06:22:34;;;;;;;6.95;2.40;;;;;;;12.14;100.00;99902.59;4894708;29;20551;-72
2023/09/22 06:24:59;;;;;;;13.23;2.80;;;;;;;12.14;100.00;99903.38;4894778;29;20028;-72
2023/09/22 06:27:25;;;;;;;6.63;2.95;;;;;;;12.15;100.00;99907.69;4894657;29;20513;-72
2023/09/22 06:29:50;;;;;;;11.45;3.40;;;;;;;12.19;100.00;99906.19;4894757;29;20028;-72
2023/09/22 06:32:18;;;;;;;10.82;2.78;;;;;;;12.26;100.00;99909.56;4876892;29;20455;-74
2023/09/22 06:34:43;;;;;;;4.63;2.40;;;;;;;12.28;100.00;99907.47;4894486;29;20047;-72
2023/09/22 06:37:09;;;;;;;3.95;2.45;;;;;;;12.32;100.00;99901.69;4894661;29;20338;-73
2023/09/22 06:39:34;;;;;;;9.48;2.90;;;;;;;12.38;100.00;99898.88;4877614;29;20131;-73
2023/09/22 06:42:00;;;;;;;5.07;2.13;;;;;;;12.42;100.00;99908.06;4894700;29;20080;-73
2023/09/22 06:44:27;;;;;;;5.25;3.58;;;;;;;12.45;100.00;99910.28;4894397;29;20029;-73
2023/09/22 06:46:53;;;;;;;3.05;2.25;;;;;;;12.50;100.00;99922.97;4877552;29;20104;-72
2023/09/22 06:49:18;;;;;;;7.40;2.30;;;;;;;12.54;100.00;99921.44;4894309;29;20036;-72
2023/09/22 06:51:43;;;;;;;3.45;2.10;;;;;;;12.60;100.00;99925.03;4894276;29;20032;-72
2023/09/22 06:54:09;;;;;;;4.45;2.38;;;;;;;12.62;100.00;99922.94;4894189;29;20036;-73
2023/09/22 06:56:35;;;;;;;6.40;1.95;;;;;;;12.62;100.00;99918.41;4893663;29;20039;-73
2023/09/22 06:59:02;;;;;;;4.90;2.60;;;;;;;12.62;100.00;99914.94;4894375;29;20068;-72
2023/09/22 07:01:27;;;;;;;5.13;2.10;;;;;;;12.69;100.00;99921.78;4894051;29;20123;-72
2023/09/22 07:03:53;;;;;;;5.72;2.10;;;;;;;12.75;100.00;99924.59;4892717;29;20441;-72
2023/09/22 07:06:20;;;;;;;3.83;1.83;;;;;;;12.77;100.00;99928.66;4876567;29;20045;-73
2023/09/22 07:08:46;;;;;;;5.72;2.47;;;;;;;12.83;100.00;99929.56;4893737;29;20052;-73
2023/09/22 07:11:12;;;;;;;4.25;2.42;;;;;;;12.87;100.00;99928.06;4894412;29;20100;-73
2023/09/22 07:13:40;;;;;;;3.08;2.13;;;;;;;12.94;100.00;99931.41;4893933;29;20040;-73
2023/09/22 07:16:06;;;;;;;4.30;2.08;;;;;;;12.99;100.00;99931.53;4894223;29;20025;-72
2023/09/22 07:18:31;;;;;;;4.32;2.20;;;;;;;13.00;100.00;99932.38;4894132;29;20039;-73
2023/09/22 07:20:57;;;;;;;3.63;1.70;;;;;;;13.06;100.00;99942.94;4893874;29;20028;-73
2023/09/22 07:23:23;;;;;;;4.88;2.13;;;;;;;13.06;100.00;99942.13;4894072;29;20441;-73
2023/09/22 07:26:06;;;;;;;2.65;1.70;;;;;;;13.18;100.00;99955.47;4893739;29;20457;-73
2023/09/22 07:28:32;;;;;;;2.33;1.60;;;;;;;13.22;100.00;99962.81;4893492;29;20051;-73
2023/09/22 07:30:57;;;;;;;3.80;1.60;;;;;;;13.27;100.00;99962.94;4893625;29;20100;-73
2023/09/22 07:33:31;;;;;;;4.55;2.63;;;;;;;13.30;100.00;99969.69;4893841;29;20032;-72
2023/09/22 07:35:58;;;;;;;2.15;1.60;;;;;;;13.35;100.00;99967.13;4894201;29;20380;-73
2023/09/22 07:38:24;;;;;;;4.80;2.05;;;;;;;13.45;100.00;99983.41;4893846;29;20029;-73
2023/09/22 07:40:51;;;;;;;3.63;1.20;;;;;;;13.51;100.00;99982.44;4893564;29;20084;-73
2023/09/22 07:43:16;;;;;;;3.78;1.60;;;;;;;13.50;100.00;99983.50;4878108;29;20511;-73
2023/09/22 07:45:41;;;;;;;3.80;2.13;;;;;;;13.63;100.00;99985.09;4880196;29;20032;-73
2023/09/22 07:48:07;;;;;;;3.75;1.30;;;;;;;13.75;100.00;99985.03;4897267;29;20123;-73
2023/09/22 07:50:35;;;;;;;2.70;1.45;;;;;;;13.79;100.00;99981.66;4880810;29;20063;-73
2023/09/22 07:53:01;;;;;;;3.63;1.95;;;;;;;13.86;100.00;99989.56;4896912;29;20029;-73
2023/09/22 07:55:26;;;;;;;4.90;1.73;;;;;;;13.92;100.00;99993.97;4880248;29;20042;-74
2023/09/22 07:57:51;;;;;;;2.75;1.27;;;;;;;14.00;100.00;100003.50;4895561;29;20044;-72
2023/09/22 08:00:18;;;;;;;2.53;1.40;;;;;;;14.10;100.00;100001.00;4897037;29;20084;-73
2023/09/22 08:02:45;;;;;;;7.03;1.55;;;;;;;14.20;100.00;99994.97;4896957;29;20036;-73
2023/09/22 08:05:15;;;;;;;4.18;2.13;;;;;;;14.26;100.00;99999.41;4896805;29;20032;-73
2023/09/22 08:07:43;;;;;;;2.53;1.38;;;;;;;14.21;100.00;99993.94;4897033;29;20101;-73
2023/09/22 08:10:10;;;;;;;1.95;1.20;;;;;;;14.28;100.00;99997.28;4897112;29;20447;-73
2023/09/22 08:12:37;;;;;;;1.25;1.05;;;;;;;14.32;100.00;100003.78;4897356;29;20040;-73
2023/09/22 08:15:04;;;;;;;2.78;1.27;;;;;;;14.36;100.00;100010.31;4896952;29;20037;-73
2023/09/22 08:17:29;;;;;;;2.42;1.23;;;;;;;14.51;100.00;100014.28;4880342;29;20032;-73
2023/09/22 08:19:55;;;;;;;4.80;1.23;;;;;;;14.54;100.00;100025.41;4896979;29;20507;-73
2023/09/22 08:22:20;;;;;;;2.90;1.35;;;;;;;14.59;100.00;100033.53;4896759;29;20047;-73
2023/09/22 08:24:46;;;;;;;4.53;1.05;;;;;;;14.60;100.00;100032.47;4895970;29;20035;-73
2023/09/22 08:27:12;;;;;;;2.38;1.13;;;;;;;14.59;100.00;100032.69;4897126;29;20468;-73
2023/09/22 08:29:37;;;;;;;2.20;0.88;;;;;;;14.56;100.00;100017.09;4896885;29;20080;-73
2023/09/22 08:32:04;;;;;;;6.13;1.80;;;;;;;14.69;100.00;100028.31;4896561;29;20040;-73
2023/09/22 08:34:33;;;;;;;4.28;1.23;;;;;;;14.72;100.00;100023.50;4890379;29;20036;-74
2023/09/22 08:36:58;;;;;;;3.33;1.30;;;;;;;14.82;100.00;100026.38;4894418;29;20151;-73
2023/09/22 08:39:25;;;;;;;0.80;0.50;;;;;;;14.89;100.00;100033.19;4879672;29;20131;-73
2023/09/22 08:41:50;;;;;;;3.75;0.85;;;;;;;15.05;100.00;100028.88;4879485;29;20555;-73
2023/09/22 08:44:17;;;;;;;2.35;1.02;;;;;;;15.17;100.00;100026.09;4896302;29;20040;-73
2023/09/22 08:46:43;;;;;;;3.72;0.95;;;;;;;15.20;100.00;100033.66;4896192;29;20075;-73
2023/09/22 08:49:08;;;;;;;2.05;1.42;;;;;;;15.30;100.00;100028.41;4896228;29;20101;-71
2023/09/22 08:51:35;;;;;;;2.65;1.65;;;;;;;15.42;100.00;100033.66;4895998;29;20594;-73
2023/09/22 08:54:01;;;;;;;1.33;1.05;;;;;;;15.41;100.00;100040.13;4893920;29;20040;-72
2023/09/22 08:56:26;;;;;;;2.85;1.10;;;;;;;15.48;100.00;100034.53;4895887;29;20032;-72
2023/09/22 08:58:52;;;;;;;2.92;1.60;;;;;;;15.61;100.00;100033.38;4896385;29;20037;-72
2023/09/22 09:01:17;;;;;;;1.52;0.70;;;;;;;15.71;100.00;100033.53;4879281;29;20040;-72
2023/09/22 09:03:44;;;;;;;1.55;1.15;;;;;;;15.87;100.00;100042.56;4896303;29;20036;-72
2023/09/22 09:06:10;;;;;;;2.20;0.77;;;;;;;16.02;100.00;100041.94;4896034;29;20039;-72
2023/09/22 09:08:35;;;;;;;1.13;1.00;;;;;;;16.22;100.00;100052.94;4878831;29;20485;-72
2023/09/22 09:11:07;;;;;;;1.10;0.95;;;;;;;16.30;100.00;100054.34;4896166;29;20056;-72
2023/09/22 09:13:34;;;;;;;3.42;1.20;;;;;;;16.29;99.17;100056.22;4878874;29;20084;-72
2023/09/22 09:16:05;;;;;;;1.40;0.63;;;;;;;16.30;100.00;100052.47;4896005;29;20036;-72
2023/09/22 09:18:30;;;;;;;2.53;1.13;;;;;;;16.24;100.00;100052.66;4895900;29;20445;-72
2023/09/22 09:21:16;;;;;;;4.05;0.90;;;;;;;16.12;100.00;100050.94;4895714;29;20033;-72
2023/09/22 09:23:54;;;;;;;2.00;0.85;;;;;;;16.27;100.00;100055.66;4896023;29;20040;-71
2023/09/22 09:26:31;;;;;;;1.42;0.95;;;;;;;16.33;100.00;100043.06;4895809;29;20929;-71
2023/09/22 09:28:56;;;;;;;1.25;0.90;;;;;;;16.27;99.03;100060.22;4895607;29;20056;-71
2023/09/22 09:31:45;;;;;;;2.72;1.20;;;;;;;16.13;98.58;100047.16;4895587;29;20036;-71
2023/09/22 09:34:12;;;;;;;1.38;0.80;;;;;;;16.14;96.41;100059.56;4895724;29;20029;-71
2023/09/22 09:36:38;;;;;;;5.97;0.98;;;;;;;16.24;98.22;100058.03;4895541;29;20032;-71
2023/09/22 09:39:03;;;;;;;1.17;0.65;;;;;;;16.29;94.61;100058.91;4895278;29;20484;-71
2023/09/22 09:41:30;;;;;;;1.30;1.08;;;;;;;16.20;97.17;100063.13;4894049;29;20076;-72
2023/09/22 09:43:58;;;;;;;3.60;0.98;;;;;;;16.00;96.71;100055.63;4895464;29;20115;-72
2023/09/22 09:46:26;;;;;;;2.30;0.50;;;;;;;15.83;100.00;100058.41;4878178;29;20431;-71
2023/09/22 09:48:55;;;;;;;1.58;0.75;;;;;;;15.77;98.53;100071.00;4891609;29;20032;-71
2023/09/22 09:51:23;;;;;;;2.05;1.33;;;;;;;15.85;99.22;100064.34;4886535;29;20040;-71
2023/09/22 09:53:55;;;;;;;3.13;0.82;;;;;;;16.09;99.45;100067.59;4886970;29;20388;-72
2023/09/22 09:56:23;;;;;;;3.50;0.70;;;;;;;16.35;99.43;100057.09;4887507;29;20088;-72
2023/09/22 09:58:49;;;;;;;2.78;0.75;;;;;;;16.54;98.06;100068.31;4887422;29;20458;-72
2023/09/22 10:01:14;;;;;;;6.18;1.27;;;;;;;16.59;93.08;100057.59;4870591;29;20382;-70
2023/09/22 10:03:40;;;;;;;2.00;0.70;;;;;;;16.71;94.17;100068.16;4887928;29;20039;-71
2023/09/22 10:06:09;;;;;;;4.13;1.23;;;;;;;16.95;92.73;100064.09;4887446;29;20508;-68
2023/09/22 10:08:35;;;;;;;0.95;0.75;;;;;;;17.12;91.81;100057.75;4887377;29;20075;-68
2023/09/22 10:11:03;;;;;;;1.45;0.80;;;;;;;17.08;93.40;100050.19;4893148;29;20044;-73
2023/09/22 10:13:29;;;;;;;3.05;1.40;;;;;;;17.08;90.49;100050.19;4894927;29;20025;-72
2023/09/22 10:16:00;;;;;;;3.83;1.83;;;;;;;17.27;91.85;100057.84;4894871;29;20488;-72
2023/09/22 10:18:46;;;;;;;2.20;1.15;;;;;;;17.38;90.79;100053.31;4894611;29;20037;-72
2023/09/22 10:21:30;;;;;;;1.35;0.95;;;;;;;17.43;92.19;100045.25;4894751;29;20032;-72
2023/09/22 10:24:32;;;;;;;2.38;0.90;;;;;;;17.54;94.27;100044.22;4893511;29;20356;-73
2023/09/22 10:27:06;;;;;;;;;;;;;;;17.62;92.31;100049.13;4894874;29;20793;-72
2023/09/22 10:29:37;;;;;;;2.15;0.90;;;;;;;17.51;90.05;100052.84;4894768;29;19966;-71
2023/09/22 10:32:17;;;;;;;3.90;1.10;;;;;;;17.30;89.57;100055.44;4894486;29;20024;-72
2023/09/22 10:35:05;;;;;;;1.77;1.15;;;;;;;17.11;94.16;100062.31;4877678;29;20127;-72
2023/09/22 10:37:35;;;;;;;1.30;0.50;;;;;;;16.81;90.21;100050.25;4894774;29;20032;-72
2023/09/22 10:40:11;;;;;;;2.40;0.90;;;;;;;16.61;92.07;100061.63;4894500;29;20478;-73
2023/09/22 10:42:49;;;;;;;1.20;0.65;;;;;;;16.53;92.03;100051.34;4894397;29;20044;-72
2023/09/22 10:45:17;;;;;;;2.92;0.82;;;;;;;16.65;90.58;100040.38;4894359;29;20095;-72
2023/09/22 10:47:49;;;;;;;1.38;0.70;;;;;;;16.86;87.83;100044.09;4894247;29;20087;-73
2023/09/22 10:50:18;;;;;;;1.13;0.68;;;;;;;17.12;88.49;100044.28;4894642;29;20472;-72
2023/09/22 10:53:04;;;;;;;3.05;1.13;;;;;;;17.20;90.21;100047.28;4894398;29;20032;-72
2023/09/22 10:55:37;;;;;;;3.22;1.02;;;;;;;17.14;87.05;100055.59;4894070;29;20044;-72
2023/09/22 10:58:14;;;;;;;4.72;1.00;;;;;;;17.06;87.37;100052.31;4877702;29;20032;-72
2023/09/22 11:00:53;;;;;;;1.42;0.65;;;;;;;16.86;85.80;100063.75;4894195;29;20033;-72
2023/09/22 11:03:19;;;;;;;3.35;0.75;;;;;;;16.64;86.67;100055.75;4894316;29;20044;-71
2023/09/22 11:05:46;;;;;;;2.28;1.13;;;;;;;16.60;88.02;100049.22;4888219;29;20166;-70
2023/09/22 11:08:17;;;;;;;1.88;0.68;;;;;;;16.56;90.13;100052.72;4886421;29;20056;-69
2023/09/22 11:10:47;;;;;;;3.47;1.13;;;;;;;16.63;88.69;100048.72;4869578;29;20120;-69
2023/09/22 11:13:14;;;;;;;1.10;0.80;;;;;;;16.83;88.53;100058.06;4887049;29;20056;-67
2023/09/22 11:15:56;;;;;;;2.05;1.20;;;;;;;16.73;87.07;100055.25;4886313;29;20032;-67
2023/09/22 11:18:25;;;;;;;3.50;1.55;;;;;;;16.74;88.43;100051.50;4889076;29;20037;-67
2023/09/22 11:21:05;;;;;;;1.73;0.65;;;;;;;16.94;89.07;100045.50;4893609;29;20040;-71
2023/09/22 11:23:31;;;;;;;2.08;1.73;;;;;;;17.04;85.78;100061.72;4896786;29;20032;-70